San Juan, Peru
Current Conditions -  °F | °C
As of 8:00 PM on Friday 24 Oct 2014 (Local Time) from SPSO Reporting Station
Overcast Overcast  
Wind Chill: 64°   Ceiling: 2000
Heat Index: 64°   Visibility: 6mi
Dew Point: 59°   Wind: 17mph
Humidity: 83%   Direction: 220°SW
Pressure: 29.94"   Gusts: NA
Location:  15.36°S, 75.14°W
Report Text: SPSO 250100Z 22015KT 9999 OVC020 18/15 Q1014 RMK PP000
Loading
Personal Weather Stations






























Interactive Weather Map
Tropical Storm Tracking
New forecast layout! Learn more

10-Day Weather Forecast

Advertisements
Track Severe Weather on mobile